createdAt,value
2023-05-12T00:01:43.329Z,136.92
2023-05-12T00:04:52.992Z,134.70
2023-05-12T00:08:00.068Z,140.75
2023-05-12T00:11:06.451Z,131.14
2023-05-12T00:14:20.920Z,125.33
2023-05-12T00:17:29.967Z,130.09
2023-05-12T00:20:37.446Z,134.29
2023-05-12T00:23:43.426Z,133.84
2023-05-12T00:26:50.374Z,134.18
2023-05-12T00:29:59.434Z,133.02
2023-05-12T00:33:17.583Z,132.25
2023-05-12T00:36:23.712Z,139.20
2023-05-12T00:39:30.642Z,137.84
2023-05-12T00:42:38.029Z,140.58
2023-05-12T00:45:45.449Z,137.22
2023-05-12T00:48:55.632Z,133.65
2023-05-12T00:52:09.443Z,135.00
2023-05-12T00:55:19.356Z,126.44
2023-05-12T00:58:32.448Z,133.53
2023-05-12T01:01:39.659Z,132.19
2023-05-12T01:04:55.816Z,130.82
2023-05-12T01:08:04.581Z,130.15
2023-05-12T01:11:16.079Z,138.01
2023-05-12T01:14:22.078Z,135.97
2023-05-12T01:17:39.008Z,133.24
2023-05-12T01:20:54.095Z,136.17
2023-05-12T01:24:08.429Z,137.55
2023-05-12T01:27:23.192Z,128.96
2023-05-12T01:30:44.118Z,128.91
2023-05-12T01:33:52.291Z,132.11
2023-05-12T01:36:59.114Z,136.28
2023-05-12T01:40:05.657Z,128.19
2023-05-12T01:43:15.483Z,127.22
2023-05-12T01:46:21.361Z,129.22
2023-05-12T01:49:29.256Z,127.09
2023-05-12T01:52:35.458Z,120.84
2023-05-12T01:55:43.199Z,136.51
2023-05-12T01:58:51.936Z,128.55
2023-05-12T02:01:58.934Z,134.40
2023-05-12T02:05:11.229Z,119.92
2023-05-12T02:08:18.165Z,132.26
2023-05-12T02:11:24.263Z,122.92
2023-05-12T02:14:33.617Z,134.98
2023-05-12T02:17:39.929Z,129.10
2023-05-12T02:20:50.900Z,136.46
2023-05-12T02:23:56.941Z,134.69
2023-05-12T02:27:03.737Z,135.06
2023-05-12T02:30:15.483Z,143.93
2023-05-12T02:33:26.593Z,138.13
2023-05-12T02:36:32.877Z,133.91
2023-05-12T02:39:39.825Z,131.68
2023-05-12T02:42:45.923Z,123.98
2023-05-12T02:45:56.469Z,134.68
2023-05-12T02:49:05.605Z,131.00
2023-05-12T02:52:18.449Z,131.84
2023-05-12T02:55:24.891Z,123.31
2023-05-12T02:58:38.396Z,135.10
2023-05-12T03:01:47.015Z,128.71
2023-05-12T03:04:53.838Z,134.74
2023-05-12T03:07:59.859Z,142.56
2023-05-12T03:11:07.587Z,138.91
2023-05-12T03:14:14.204Z,137.61
2023-05-12T03:17:23.766Z,135.56
2023-05-12T03:20:29.757Z,131.45
2023-05-12T03:23:38.715Z,134.35
2023-05-12T03:26:49.022Z,120.48
2023-05-12T03:29:56.113Z,124.75
2023-05-12T03:33:12.624Z,142.14
2023-05-12T03:36:21.892Z,121.15
2023-05-12T03:39:27.894Z,111.93
2023-05-12T03:42:48.905Z,102.67
2023-05-12T03:45:57.564Z,107.90
2023-05-12T03:49:06.976Z,113.83
2023-05-12T03:52:12.985Z,106.28
2023-05-12T03:55:19.938Z,114.75
2023-05-12T03:58:26.340Z,113.90
2023-05-12T04:01:33.273Z,116.66
2023-05-12T04:04:43.048Z,109.72
2023-05-12T04:07:51.282Z,119.24
2023-05-12T04:10:59.135Z,103.74
2023-05-12T04:14:06.333Z,113.02
2023-05-12T04:17:12.259Z,108.40
2023-05-12T04:20:21.898Z,115.06
2023-05-12T04:23:28.662Z,106.07
2023-05-12T04:26:35.438Z,112.06
2023-05-12T04:29:41.523Z,101.95
2023-05-12T04:32:51.786Z,103.42
2023-05-12T04:36:02.141Z,113.37
2023-05-12T04:39:09.793Z,110.83
2023-05-12T04:42:16.178Z,104.13
2023-05-12T04:45:23.436Z,112.95
2023-05-12T04:48:31.539Z,110.84
2023-05-12T04:51:43.310Z,114.12
2023-05-12T04:54:49.727Z,104.14
2023-05-12T04:57:56.727Z,112.03
2023-05-12T05:01:03.829Z,107.09
2023-05-12T05:04:10.881Z,117.69
2023-05-12T05:07:19.750Z,115.33
2023-05-12T05:10:26.649Z,106.07
2023-05-12T05:13:32.666Z,111.27
2023-05-12T05:16:39.720Z,114.57
2023-05-12T05:19:57.518Z,105.27
2023-05-12T05:23:10.578Z,100.95
2023-05-12T05:26:16.667Z,109.13
2023-05-12T05:29:23.452Z,119.53
2023-05-12T05:32:30.681Z,112.29
2023-05-12T05:35:37.883Z,117.52
2023-05-12T05:38:47.152Z,115.04
2023-05-12T05:41:54.353Z,119.47
2023-05-12T05:45:00.408Z,104.49
2023-05-12T05:48:08.723Z,122.36
2023-05-12T05:51:15.333Z,118.98
2023-05-12T05:54:27.166Z,114.05
2023-05-12T05:57:33.316Z,116.56
2023-05-12T06:00:41.635Z,105.52
2023-05-12T06:03:47.764Z,98.75
2023-05-12T06:06:58.191Z,104.05
2023-05-12T06:10:07.242Z,110.13
2023-05-12T06:13:14.065Z,104.23
2023-05-12T06:16:20.165Z,109.38
2023-05-12T06:19:27.983Z,102.79
2023-05-12T06:22:35.017Z,103.83
2023-05-12T06:25:50.579Z,100.60
2023-05-12T06:28:56.841Z,85.13
2023-05-12T06:32:09.089Z,90.76
2023-05-12T06:35:15.216Z,97.20
2023-05-12T06:38:22.014Z,101.37
2023-05-12T06:41:39.725Z,88.62
2023-05-12T06:44:46.728Z,105.00
2023-05-12T06:47:53.125Z,100.93
2023-05-12T06:51:20.935Z,95.81
2023-05-12T06:54:27.289Z,100.79
2023-05-12T06:57:38.068Z,106.37
2023-05-12T07:00:44.171Z,98.48
2023-05-12T07:03:51.123Z,115.41
2023-05-12T07:06:57.378Z,115.31
2023-05-12T07:10:04.366Z,104.40
2023-05-12T07:13:13.337Z,97.60
2023-05-12T07:16:21.912Z,109.50
2023-05-12T07:19:30.901Z,91.48
2023-05-12T07:22:38.938Z,99.58
2023-05-12T07:25:45.406Z,89.44
2023-05-12T07:28:54.996Z,101.40
2023-05-12T07:32:00.813Z,95.26
2023-05-12T07:35:09.616Z,97.08
2023-05-12T07:38:16.370Z,93.83
2023-05-12T07:41:23.408Z,101.65
2023-05-12T07:44:37.265Z,78.96
2023-05-12T07:47:48.866Z,101.22
2023-05-12T07:50:55.052Z,78.53
2023-05-12T07:54:01.973Z,89.92
2023-05-12T07:57:08.397Z,98.28
2023-05-12T08:00:19.273Z,99.30
2023-05-12T08:03:25.470Z,92.27
2023-05-12T08:06:32.352Z,102.90
2023-05-12T08:09:38.288Z,89.93
2023-05-12T08:12:46.007Z,94.79
2023-05-12T08:15:55.840Z,93.94
2023-05-12T08:19:02.716Z,107.48
2023-05-12T08:22:08.754Z,98.57
2023-05-12T08:25:16.690Z,97.82
2023-05-12T08:28:22.528Z,88.70
2023-05-12T08:31:32.144Z,98.74
2023-05-12T08:34:38.328Z,90.31
2023-05-12T08:37:46.144Z,87.63
2023-05-12T08:41:11.241Z,90.91
2023-05-12T08:44:23.914Z,90.85
2023-05-12T08:47:33.926Z,84.01
2023-05-12T08:50:48.252Z,93.41
2023-05-12T08:53:59.844Z,84.41
2023-05-12T08:57:09.181Z,95.54
2023-05-12T09:03:37.202Z,101.17
2023-05-12T09:06:46.423Z,101.04
2023-05-12T09:10:01.645Z,98.45
2023-05-12T09:13:20.052Z,98.97
2023-05-12T09:16:35.296Z,96.82
2023-05-12T09:19:43.922Z,77.80
2023-05-12T09:22:50.894Z,84.44
2023-05-12T09:26:04.343Z,87.43
2023-05-12T09:29:15.786Z,85.30
2023-05-12T09:32:39.016Z,63.65
2023-05-12T09:35:49.647Z,78.74
2023-05-12T09:39:07.771Z,74.68
2023-05-12T09:42:17.591Z,76.81
2023-05-12T09:45:23.615Z,74.81
2023-05-12T09:48:30.456Z,78.80
2023-05-12T09:51:39.178Z,77.00
2023-05-12T09:54:46.133Z,81.67
2023-05-12T09:57:53.675Z,76.00
2023-05-12T10:04:15.116Z,64.96
2023-05-12T10:07:29.165Z,75.97
2023-05-12T10:10:40.584Z,72.69
2023-05-12T10:13:47.778Z,75.62
2023-05-12T10:16:55.258Z,68.52
2023-05-12T10:20:06.949Z,80.24
2023-05-12T10:23:16.661Z,73.77
2023-05-12T10:26:31.723Z,83.01
2023-05-12T10:29:43.978Z,73.39
2023-05-12T10:32:51.254Z,71.88
2023-05-12T10:36:00.445Z,67.26
2023-05-12T10:39:35.377Z,70.74
2023-05-12T10:42:44.251Z,83.76
2023-05-12T10:46:09.017Z,85.83
2023-05-12T10:49:15.994Z,75.62
2023-05-12T10:52:24.395Z,73.35
2023-05-12T10:55:51.625Z,76.44
2023-05-12T10:59:17.981Z,64.54
2023-05-12T11:02:31.202Z,70.58
2023-05-12T11:05:40.091Z,71.19
2023-05-12T11:08:50.632Z,66.05
2023-05-12T11:12:01.085Z,67.67
2023-05-12T11:15:09.725Z,71.83
2023-05-12T11:18:17.789Z,76.06
2023-05-12T11:21:23.800Z,67.41
2023-05-12T11:24:30.488Z,77.48
2023-05-12T11:27:42.783Z,69.07
2023-05-12T11:31:00.036Z,66.89
2023-05-12T11:34:12.704Z,68.75
2023-05-12T11:37:21.718Z,68.20
2023-05-12T11:40:27.703Z,71.50
2023-05-12T11:43:43.797Z,65.16
2023-05-12T11:47:01.168Z,65.54
2023-05-12T11:50:10.349Z,77.02
2023-05-12T11:53:19.098Z,68.24
2023-05-12T11:56:27.419Z,72.52
2023-05-12T11:59:38.256Z,73.33
2023-05-12T12:02:45.122Z,105.93
2023-05-12T12:06:02.887Z,74.34
2023-05-12T12:09:13.508Z,74.88
2023-05-12T12:12:26.689Z,56.41
2023-05-12T12:15:36.427Z,78.81
2023-05-12T12:18:43.483Z,72.53
2023-05-12T12:21:50.340Z,76.18
2023-05-12T12:24:56.427Z,81.58
2023-05-12T12:28:03.205Z,82.29
2023-05-12T12:31:12.035Z,74.52
2023-05-12T12:34:18.892Z,87.55
2023-05-12T12:37:24.942Z,73.88
2023-05-12T12:40:31.896Z,88.36
2023-05-12T12:43:38.127Z,92.90
2023-05-12T12:46:47.670Z,94.69
2023-05-12T12:50:00.701Z,77.45
2023-05-12T12:53:07.524Z,88.88
2023-05-12T12:56:13.440Z,89.98
2023-05-12T12:59:20.200Z,99.68
2023-05-12T13:02:30.008Z,97.30
2023-05-12T13:05:37.347Z,88.82
2023-05-12T13:08:43.543Z,89.85
2023-05-12T13:11:51.061Z,93.22
2023-05-12T13:14:57.239Z,85.79
2023-05-12T13:18:07.176Z,85.34
2023-05-12T13:21:13.194Z,80.98
2023-05-12T13:24:20.041Z,90.87
2023-05-12T13:27:29.395Z,91.97
2023-05-12T13:30:38.101Z,72.62
2023-05-12T13:33:46.668Z,78.72
2023-05-12T13:36:53.882Z,80.54
2023-05-12T13:39:59.998Z,68.10
2023-05-12T13:43:25.316Z,60.54
2023-05-12T13:46:31.265Z,57.46
2023-05-12T13:49:40.825Z,74.51
2023-05-12T13:52:47.898Z,67.71
2023-05-12T13:55:55.123Z,66.52
2023-05-12T13:59:05.284Z,62.89
2023-05-12T14:02:14.120Z,63.19
2023-05-12T14:05:23.596Z,64.94
2023-05-12T14:08:30.749Z,62.84
2023-05-12T14:11:37.321Z,66.20
2023-05-12T14:14:49.947Z,64.30
2023-05-12T14:17:56.052Z,52.22
2023-05-12T14:21:08.222Z,67.94
2023-05-12T14:24:14.171Z,70.69
2023-05-12T14:27:30.949Z,53.83
2023-05-12T14:30:37.796Z,63.59
2023-05-12T14:33:44.751Z,60.85
2023-05-12T14:36:53.282Z,58.53
2023-05-12T14:40:02.429Z,66.79
2023-05-12T14:43:14.827Z,66.68
2023-05-12T14:46:32.129Z,60.12
2023-05-12T14:49:38.011Z,70.66
2023-05-12T14:52:47.848Z,68.02
2023-05-12T14:55:54.938Z,73.68
2023-05-12T14:59:01.682Z,75.50
2023-05-12T15:02:17.078Z,69.64
2023-05-12T15:05:29.682Z,74.57
2023-05-12T15:08:47.302Z,56.47
2023-05-12T15:11:55.451Z,70.59
2023-05-12T15:15:04.708Z,63.59
2023-05-12T15:18:11.788Z,69.48
2023-05-12T15:21:26.338Z,57.62
2023-05-12T15:24:35.876Z,79.87
2023-05-12T15:27:42.201Z,66.66
2023-05-12T15:30:58.130Z,91.38
2023-05-12T15:34:04.001Z,99.31
2023-05-12T15:37:11.601Z,96.04
2023-05-12T15:40:20.506Z,97.08
2023-05-12T15:43:27.553Z,104.20
2023-05-12T15:46:38.525Z,92.27
2023-05-12T15:49:45.524Z,103.98
2023-05-12T15:52:51.758Z,86.82
2023-05-12T15:56:09.660Z,84.05
2023-05-12T15:59:16.627Z,98.14
2023-05-12T16:02:26.435Z,98.90
2023-05-12T16:05:34.373Z,87.62
2023-05-12T16:08:41.116Z,101.13
2023-05-12T16:11:49.655Z,100.13
2023-05-12T16:14:57.139Z,98.79
2023-05-12T16:18:03.288Z,78.78
2023-05-12T16:21:10.341Z,98.97
2023-05-12T16:24:16.248Z,100.83
2023-05-12T16:27:25.817Z,96.30
2023-05-12T16:30:40.156Z,83.16
2023-05-12T16:33:47.226Z,81.63
2023-05-12T16:36:53.365Z,81.85
2023-05-12T16:40:00.201Z,91.94
2023-05-12T16:43:08.873Z,80.55
2023-05-12T16:46:15.649Z,96.22
2023-05-12T16:49:21.650Z,83.23
2023-05-12T16:52:28.758Z,85.26
2023-05-12T16:55:34.727Z,79.39
2023-05-12T16:58:44.691Z,82.70
2023-05-12T17:01:51.162Z,82.77
2023-05-12T17:04:58.008Z,92.47
2023-05-12T17:08:03.948Z,73.15
2023-05-12T17:11:10.911Z,82.14
2023-05-12T17:14:23.848Z,69.62
2023-05-12T17:17:30.965Z,86.88
2023-05-12T17:20:37.345Z,81.17
2023-05-12T17:23:44.368Z,85.97
2023-05-12T17:26:50.906Z,78.11
2023-05-12T17:30:06.430Z,85.95
2023-05-12T17:33:18.659Z,63.11
2023-05-12T17:36:25.621Z,92.51
2023-05-12T17:39:31.555Z,94.42
2023-05-12T17:42:39.002Z,97.89
2023-05-12T17:45:48.014Z,82.98
2023-05-12T17:48:56.087Z,97.72
2023-05-12T17:52:02.558Z,81.12
2023-05-12T17:55:11.259Z,102.99
2023-05-12T17:58:17.360Z,89.99
2023-05-12T18:01:27.222Z,108.48
2023-05-12T18:04:36.284Z,135.96
2023-05-12T18:07:43.536Z,195.53
2023-05-12T18:11:00.249Z,124.80
2023-05-12T18:14:20.021Z,115.43
2023-05-12T18:17:29.333Z,113.25
2023-05-12T18:20:41.122Z,125.63
2023-05-12T18:23:47.262Z,104.98
2023-05-12T18:26:54.131Z,126.24
2023-05-12T18:30:00.134Z,116.38
2023-05-12T18:33:09.622Z,128.78
2023-05-12T18:36:15.637Z,107.60
2023-05-12T18:39:23.851Z,129.77
2023-05-12T18:42:32.695Z,132.55
2023-05-12T18:45:39.675Z,136.44
2023-05-12T18:48:48.866Z,127.51
2023-05-12T18:51:55.746Z,123.07
2023-05-12T18:55:01.735Z,119.11
2023-05-12T18:58:08.763Z,135.56
2023-05-12T19:01:15.048Z,125.17
2023-05-12T19:04:24.904Z,128.27
2023-05-12T19:07:30.980Z,106.25
2023-05-12T19:10:39.768Z,114.65
2023-05-12T19:13:47.554Z,101.05
2023-05-12T19:16:54.573Z,106.04
2023-05-12T19:20:03.581Z,111.15
2023-05-12T19:23:10.415Z,109.69
2023-05-12T19:26:19.188Z,106.50
2023-05-12T19:29:26.440Z,104.72
2023-05-12T19:32:34.065Z,98.77
2023-05-12T19:35:43.656Z,106.36
2023-05-12T19:38:49.735Z,107.98
2023-05-12T19:41:56.802Z,112.07
2023-05-12T19:45:02.923Z,105.48
2023-05-12T19:48:10.802Z,101.97
2023-05-12T19:51:19.512Z,105.00
2023-05-12T19:54:26.787Z,115.21
2023-05-12T19:57:32.828Z,117.87
2023-05-12T20:00:40.039Z,122.95
2023-05-12T20:03:46.112Z,110.40
2023-05-12T20:06:57.698Z,126.28
2023-05-12T20:10:04.009Z,114.51
2023-05-12T20:13:10.758Z,121.57
2023-05-12T20:16:16.914Z,114.42
2023-05-12T20:19:28.051Z,125.91
2023-05-12T20:22:36.824Z,115.04
2023-05-12T20:25:43.835Z,128.29
2023-05-12T20:28:51.454Z,129.92
2023-05-12T20:31:58.856Z,126.42
2023-05-12T20:35:05.696Z,139.66
2023-05-12T20:38:15.787Z,142.79
2023-05-12T20:41:21.884Z,124.86
2023-05-12T20:44:29.075Z,126.63
2023-05-12T20:47:37.807Z,103.84
2023-05-12T20:50:46.045Z,114.91
2023-05-12T20:53:54.983Z,113.35
2023-05-12T20:57:01.853Z,125.49
2023-05-12T21:00:11.013Z,112.25
2023-05-12T21:03:17.752Z,117.72
2023-05-12T21:06:23.775Z,109.78
2023-05-12T21:09:33.214Z,117.38
2023-05-12T21:12:39.789Z,114.90
2023-05-12T21:15:46.608Z,124.59
2023-05-12T21:18:52.643Z,111.23
2023-05-12T21:21:59.450Z,116.08
2023-05-12T21:25:09.471Z,105.36
2023-05-12T21:28:18.071Z,111.95
2023-05-12T21:31:24.197Z,104.96
2023-05-12T21:34:33.877Z,115.09
2023-05-12T21:37:40.677Z,113.01
2023-05-12T21:40:55.217Z,112.97
2023-05-12T21:44:01.341Z,99.62
2023-05-12T21:47:09.028Z,109.51
2023-05-12T21:50:15.189Z,104.26
2023-05-12T21:53:21.929Z,114.28
2023-05-12T21:56:30.595Z,105.62
2023-05-12T21:59:37.621Z,113.48
2023-05-12T22:02:43.663Z,125.25
2023-05-12T22:05:50.505Z,122.72
2023-05-12T22:08:56.810Z,118.17
2023-05-12T22:12:06.201Z,126.71
2023-05-12T22:15:13.381Z,128.46
2023-05-12T22:18:20.242Z,134.48
2023-05-12T22:21:26.558Z,121.82
2023-05-12T22:24:33.372Z,129.68
2023-05-12T22:27:41.950Z,113.88
2023-05-12T22:30:48.748Z,121.09
2023-05-12T22:33:54.764Z,116.40
2023-05-12T22:37:01.613Z,131.22
2023-05-12T22:40:09.391Z,120.62
2023-05-12T22:43:18.716Z,131.54
2023-05-12T22:46:26.666Z,118.03
2023-05-12T22:49:33.520Z,127.85
2023-05-12T22:52:39.434Z,124.65
2023-05-12T22:55:47.252Z,124.57
2023-05-12T22:58:55.886Z,115.60
2023-05-12T23:02:02.694Z,132.42
2023-05-12T23:05:10.292Z,132.37
2023-05-12T23:08:17.087Z,137.22
2023-05-12T23:11:23.353Z,122.79
2023-05-12T23:14:32.754Z,140.75
2023-05-12T23:17:38.813Z,132.14
2023-05-12T23:20:46.177Z,131.67
2023-05-12T23:23:52.060Z,133.31
2023-05-12T23:26:58.890Z,139.54
2023-05-12T23:30:08.707Z,142.86
2023-05-12T23:33:15.980Z,148.06
2023-05-12T23:36:22.315Z,142.34
2023-05-12T23:39:29.380Z,145.78
2023-05-12T23:42:35.242Z,139.49
2023-05-12T23:45:44.767Z,147.91
2023-05-12T23:48:51.316Z,145.90
2023-05-12T23:51:58.119Z,149.17
2023-05-12T23:55:04.267Z,143.12
2023-05-12T23:58:11.539Z,147.97
